sensor_id;sensor_type;location;lat;lon;timestamp;temperature;humidity
15426;DHT22;7812;50.072;7.036;2022-11-15T00:01:57;7.50;99.90
15426;DHT22;7812;50.072;7.036;2022-11-15T00:04:22;7.50;99.90
15426;DHT22;7812;50.072;7.036;2022-11-15T00:06:48;7.50;99.90
15426;DHT22;7812;50.072;7.036;2022-11-15T00:09:13;7.50;99.90
15426;DHT22;7812;50.072;7.036;2022-11-15T00:11:39;7.50;99.90
15426;DHT22;7812;50.072;7.036;2022-11-15T00:14:05;7.40;99.90
15426;DHT22;7812;50.072;7.036;2022-11-15T00:16:30;7.40;99.90
15426;DHT22;7812;50.072;7.036;2022-11-15T00:18:56;7.50;99.90
15426;DHT22;7812;50.072;7.036;2022-11-15T00:21:22;7.50;99.90
15426;DHT22;7812;50.072;7.036;2022-11-15T00:23:48;7.50;99.90
15426;DHT22;7812;50.072;7.036;2022-11-15T00:26:14;7.50;99.90
15426;DHT22;7812;50.072;7.036;2022-11-15T00:28:41;7.50;99.90
15426;DHT22;7812;50.072;7.036;2022-11-15T00:31:09;7.40;99.90
15426;DHT22;7812;50.072;7.036;2022-11-15T00:33:34;7.40;99.90
15426;DHT22;7812;50.072;7.036;2022-11-15T00:36:02;7.50;99.90
15426;DHT22;7812;50.072;7.036;2022-11-15T00:38:37;7.50;99.90
15426;DHT22;7812;50.072;7.036;2022-11-15T00:41:04;7.40;99.90
15426;DHT22;7812;50.072;7.036;2022-11-15T00:43:31;7.40;99.90
15426;DHT22;7812;50.072;7.036;2022-11-15T00:45:57;7.40;99.90
15426;DHT22;7812;50.072;7.036;2022-11-15T00:48:25;7.40;99.90
15426;DHT22;7812;50.072;7.036;2022-11-15T00:50:51;7.50;99.90
15426;DHT22;7812;50.072;7.036;2022-11-15T00:53:17;7.50;99.90
15426;DHT22;7812;50.072;7.036;2022-11-15T00:55:44;7.50;99.90
15426;DHT22;7812;50.072;7.036;2022-11-15T00:58:09;7.50;99.90
15426;DHT22;7812;50.072;7.036;2022-11-15T01:00:35;7.60;99.90
15426;DHT22;7812;50.072;7.036;2022-11-15T01:03:02;7.70;99.90
15426;DHT22;7812;50.072;7.036;2022-11-15T01:05:28;7.70;99.90
15426;DHT22;7812;50.072;7.036;2022-11-15T01:07:55;7.70;99.90
15426;DHT22;7812;50.072;7.036;2022-11-15T01:10:22;7.70;99.90
15426;DHT22;7812;50.072;7.036;2022-11-15T01:12:49;7.60;99.90
15426;DHT22;7812;50.072;7.036;2022-11-15T01:15:15;7.50;99.90
15426;DHT22;7812;50.072;7.036;2022-11-15T01:17:40;7.60;99.90
15426;DHT22;7812;50.072;7.036;2022-11-15T01:20:08;7.60;99.90
15426;DHT22;7812;50.072;7.036;2022-11-15T01:22:34;7.70;99.90
15426;DHT22;7812;50.072;7.036;2022-11-15T01:24:59;7.60;99.90
15426;DHT22;7812;50.072;7.036;2022-11-15T01:27:25;7.70;99.90
15426;DHT22;7812;50.072;7.036;2022-11-15T01:29:51;7.50;99.90
15426;DHT22;7812;50.072;7.036;2022-11-15T01:32:16;7.60;99.90
15426;DHT22;7812;50.072;7.036;2022-11-15T01:34:42;7.50;99.90
15426;DHT22;7812;50.072;7.036;2022-11-15T01:37:08;7.70;99.90
15426;DHT22;7812;50.072;7.036;2022-11-15T01:39:34;7.70;99.90
15426;DHT22;7812;50.072;7.036;2022-11-15T01:42:00;7.80;99.90
15426;DHT22;7812;50.072;7.036;2022-11-15T01:46:58;7.80;99.90
15426;DHT22;7812;50.072;7.036;2022-11-15T01:49:26;7.80;99.90
15426;DHT22;7812;50.072;7.036;2022-11-15T01:51:54;7.80;99.90
15426;DHT22;7812;50.072;7.036;2022-11-15T01:54:21;7.80;99.90
15426;DHT22;7812;50.072;7.036;2022-11-15T01:56:53;7.80;99.90
15426;DHT22;7812;50.072;7.036;2022-11-15T01:59:20;7.90;99.90
15426;DHT22;7812;50.072;7.036;2022-11-15T02:01:47;8.00;99.90
15426;DHT22;7812;50.072;7.036;2022-11-15T02:06:50;8.00;99.90
15426;DHT22;7812;50.072;7.036;2022-11-15T02:09:17;7.90;99.90
15426;DHT22;7812;50.072;7.036;2022-11-15T02:11:43;8.00;99.90
15426;DHT22;7812;50.072;7.036;2022-11-15T02:14:11;8.00;99.90
15426;DHT22;7812;50.072;7.036;2022-11-15T02:16:55;8.00;99.90
15426;DHT22;7812;50.072;7.036;2022-11-15T02:31:10;7.90;99.90
15426;DHT22;7812;50.072;7.036;2022-11-15T02:33:56;7.90;99.90
15426;DHT22;7812;50.072;7.036;2022-11-15T02:39:00;8.10;99.90
15426;DHT22;7812;50.072;7.036;2022-11-15T02:41:46;8.10;99.90
15426;DHT22;7812;50.072;7.036;2022-11-15T02:44:30;8.10;99.90
15426;DHT22;7812;50.072;7.036;2022-11-15T02:46:58;8.10;99.90
15426;DHT22;7812;50.072;7.036;2022-11-15T02:49:46;8.20;99.90
15426;DHT22;7812;50.072;7.036;2022-11-15T02:52:20;8.20;99.90
15426;DHT22;7812;50.072;7.036;2022-11-15T02:54:58;8.20;99.90
15426;DHT22;7812;50.072;7.036;2022-11-15T03:00:36;8.30;99.90
15426;DHT22;7812;50.072;7.036;2022-11-15T03:03:30;8.20;99.90
15426;DHT22;7812;50.072;7.036;2022-11-15T03:06:21;8.30;99.90
15426;DHT22;7812;50.072;7.036;2022-11-15T03:11:48;8.40;99.90
15426;DHT22;7812;50.072;7.036;2022-11-15T03:14:20;8.40;99.90
15426;DHT22;7812;50.072;7.036;2022-11-15T03:16:58;8.50;99.90
15426;DHT22;7812;50.072;7.036;2022-11-15T03:22:12;8.50;99.90
15426;DHT22;7812;50.072;7.036;2022-11-15T03:24:40;8.40;99.90
15426;DHT22;7812;50.072;7.036;2022-11-15T03:27:07;8.40;99.90
15426;DHT22;7812;50.072;7.036;2022-11-15T03:29:43;8.50;99.90
15426;DHT22;7812;50.072;7.036;2022-11-15T03:32:25;8.60;99.90
15426;DHT22;7812;50.072;7.036;2022-11-15T03:34:55;8.60;99.90
15426;DHT22;7812;50.072;7.036;2022-11-15T03:37:34;8.70;99.90
15426;DHT22;7812;50.072;7.036;2022-11-15T03:40:04;8.80;99.90
15426;DHT22;7812;50.072;7.036;2022-11-15T03:45:28;8.80;99.90
15426;DHT22;7812;50.072;7.036;2022-11-15T03:48:21;8.80;99.90
15426;DHT22;7812;50.072;7.036;2022-11-15T03:50:49;8.80;99.90
15426;DHT22;7812;50.072;7.036;2022-11-15T03:53:15;8.80;99.90
15426;DHT22;7812;50.072;7.036;2022-11-15T03:55:40;8.80;99.90
15426;DHT22;7812;50.072;7.036;2022-11-15T03:58:06;8.70;99.90
15426;DHT22;7812;50.072;7.036;2022-11-15T04:00:32;8.70;99.90
15426;DHT22;7812;50.072;7.036;2022-11-15T04:02:58;8.70;99.90
15426;DHT22;7812;50.072;7.036;2022-11-15T04:05:24;8.60;99.90
15426;DHT22;7812;50.072;7.036;2022-11-15T04:07:49;8.60;99.90
15426;DHT22;7812;50.072;7.036;2022-11-15T04:10:15;8.50;99.90
15426;DHT22;7812;50.072;7.036;2022-11-15T04:12:43;8.50;99.90
15426;DHT22;7812;50.072;7.036;2022-11-15T04:15:15;8.40;99.90
15426;DHT22;7812;50.072;7.036;2022-11-15T04:20:20;8.20;99.90
15426;DHT22;7812;50.072;7.036;2022-11-15T04:23:16;8.20;99.90
15426;DHT22;7812;50.072;7.036;2022-11-15T04:26:21;8.20;99.90
15426;DHT22;7812;50.072;7.036;2022-11-15T04:28:48;8.20;99.90
15426;DHT22;7812;50.072;7.036;2022-11-15T04:31:32;8.10;99.90
15426;DHT22;7812;50.072;7.036;2022-11-15T04:33:58;8.00;99.90
15426;DHT22;7812;50.072;7.036;2022-11-15T04:36:24;7.90;99.90
15426;DHT22;7812;50.072;7.036;2022-11-15T04:39:08;7.90;99.90
15426;DHT22;7812;50.072;7.036;2022-11-15T04:41:34;7.90;99.90
15426;DHT22;7812;50.072;7.036;2022-11-15T04:44:00;7.90;99.90
15426;DHT22;7812;50.072;7.036;2022-11-15T04:46:26;7.90;99.90
15426;DHT22;7812;50.072;7.036;2022-11-15T04:48:52;7.90;99.90
15426;DHT22;7812;50.072;7.036;2022-11-15T04:51:19;8.00;99.90
15426;DHT22;7812;50.072;7.036;2022-11-15T04:53:44;8.00;99.90
15426;DHT22;7812;50.072;7.036;2022-11-15T04:56:11;8.10;99.90
15426;DHT22;7812;50.072;7.036;2022-11-15T04:58:36;8.10;99.90
15426;DHT22;7812;50.072;7.036;2022-11-15T05:01:10;8.00;99.90
15426;DHT22;7812;50.072;7.036;2022-11-15T05:03:39;8.10;99.90
15426;DHT22;7812;50.072;7.036;2022-11-15T05:06:23;8.10;99.90
15426;DHT22;7812;50.072;7.036;2022-11-15T05:08:49;8.10;99.90
15426;DHT22;7812;50.072;7.036;2022-11-15T05:11:14;8.00;99.90
15426;DHT22;7812;50.072;7.036;2022-11-15T05:13:40;8.00;99.90
15426;DHT22;7812;50.072;7.036;2022-11-15T05:16:06;8.00;99.90
15426;DHT22;7812;50.072;7.036;2022-11-15T05:18:31;8.00;99.90
15426;DHT22;7812;50.072;7.036;2022-11-15T05:21:04;8.00;99.90
15426;DHT22;7812;50.072;7.036;2022-11-15T05:23:31;8.10;99.90
15426;DHT22;7812;50.072;7.036;2022-11-15T05:26:00;8.20;99.90
15426;DHT22;7812;50.072;7.036;2022-11-15T05:28:26;8.20;99.90
15426;DHT22;7812;50.072;7.036;2022-11-15T05:30:52;8.30;99.90
15426;DHT22;7812;50.072;7.036;2022-11-15T05:33:18;8.30;99.90
15426;DHT22;7812;50.072;7.036;2022-11-15T05:35:50;8.20;99.90
15426;DHT22;7812;50.072;7.036;2022-11-15T05:38:20;8.20;99.90
15426;DHT22;7812;50.072;7.036;2022-11-15T05:40:49;8.20;99.90
15426;DHT22;7812;50.072;7.036;2022-11-15T05:43:17;8.30;99.90
15426;DHT22;7812;50.072;7.036;2022-11-15T05:45:43;8.30;99.90
15426;DHT22;7812;50.072;7.036;2022-11-15T05:48:09;8.30;99.90
15426;DHT22;7812;50.072;7.036;2022-11-15T05:50:42;8.30;99.90
15426;DHT22;7812;50.072;7.036;2022-11-15T05:53:10;8.20;99.90
15426;DHT22;7812;50.072;7.036;2022-11-15T05:55:37;8.20;99.90
15426;DHT22;7812;50.072;7.036;2022-11-15T05:58:04;8.30;99.90
15426;DHT22;7812;50.072;7.036;2022-11-15T06:00:30;8.30;99.90
15426;DHT22;7812;50.072;7.036;2022-11-15T06:02:55;8.30;99.90
15426;DHT22;7812;50.072;7.036;2022-11-15T06:05:21;8.40;99.90
15426;DHT22;7812;50.072;7.036;2022-11-15T06:07:47;8.40;99.90
15426;DHT22;7812;50.072;7.036;2022-11-15T06:10:12;8.30;99.90
15426;DHT22;7812;50.072;7.036;2022-11-15T06:12:38;8.40;99.90
15426;DHT22;7812;50.072;7.036;2022-11-15T06:15:04;8.40;99.90
15426;DHT22;7812;50.072;7.036;2022-11-15T06:17:29;8.40;99.90
15426;DHT22;7812;50.072;7.036;2022-11-15T06:19:58;8.40;99.90
15426;DHT22;7812;50.072;7.036;2022-11-15T06:22:23;8.50;99.90
15426;DHT22;7812;50.072;7.036;2022-11-15T06:24:49;8.50;99.90
15426;DHT22;7812;50.072;7.036;2022-11-15T06:27:14;8.50;99.90
15426;DHT22;7812;50.072;7.036;2022-11-15T06:29:40;8.50;99.90
15426;DHT22;7812;50.072;7.036;2022-11-15T06:32:06;8.50;99.90
15426;DHT22;7812;50.072;7.036;2022-11-15T06:34:31;8.50;99.90
15426;DHT22;7812;50.072;7.036;2022-11-15T06:36:57;8.50;99.90
15426;DHT22;7812;50.072;7.036;2022-11-15T06:39:23;8.50;99.90
15426;DHT22;7812;50.072;7.036;2022-11-15T06:41:50;8.50;99.90
15426;DHT22;7812;50.072;7.036;2022-11-15T06:44:15;8.50;99.90
15426;DHT22;7812;50.072;7.036;2022-11-15T06:46:41;8.40;99.90
15426;DHT22;7812;50.072;7.036;2022-11-15T06:49:07;8.50;99.90
15426;DHT22;7812;50.072;7.036;2022-11-15T06:51:33;8.40;99.90
15426;DHT22;7812;50.072;7.036;2022-11-15T06:53:58;8.30;99.90
15426;DHT22;7812;50.072;7.036;2022-11-15T06:56:25;8.30;99.90
15426;DHT22;7812;50.072;7.036;2022-11-15T06:58:51;8.40;99.90
15426;DHT22;7812;50.072;7.036;2022-11-15T07:01:17;8.40;99.90
15426;DHT22;7812;50.072;7.036;2022-11-15T07:03:42;8.30;99.90
15426;DHT22;7812;50.072;7.036;2022-11-15T07:06:09;8.30;99.90
15426;DHT22;7812;50.072;7.036;2022-11-15T07:08:37;8.30;99.90
15426;DHT22;7812;50.072;7.036;2022-11-15T07:11:05;8.30;99.90
15426;DHT22;7812;50.072;7.036;2022-11-15T07:13:32;8.30;99.90
15426;DHT22;7812;50.072;7.036;2022-11-15T07:16:02;8.30;99.90
15426;DHT22;7812;50.072;7.036;2022-11-15T07:18:28;8.20;99.90
15426;DHT22;7812;50.072;7.036;2022-11-15T07:20:53;8.20;99.90
15426;DHT22;7812;50.072;7.036;2022-11-15T07:23:19;8.30;99.90
15426;DHT22;7812;50.072;7.036;2022-11-15T07:25:45;8.40;99.90
15426;DHT22;7812;50.072;7.036;2022-11-15T07:28:10;8.40;99.90
15426;DHT22;7812;50.072;7.036;2022-11-15T07:30:36;8.50;99.90
15426;DHT22;7812;50.072;7.036;2022-11-15T07:33:02;8.60;99.90
15426;DHT22;7812;50.072;7.036;2022-11-15T07:35:28;8.50;99.90
15426;DHT22;7812;50.072;7.036;2022-11-15T07:37:58;8.40;99.90
15426;DHT22;7812;50.072;7.036;2022-11-15T07:40:26;8.50;99.90
15426;DHT22;7812;50.072;7.036;2022-11-15T07:42:52;8.60;99.90
15426;DHT22;7812;50.072;7.036;2022-11-15T07:45:22;8.70;99.90
15426;DHT22;7812;50.072;7.036;2022-11-15T07:47:49;8.80;99.90
15426;DHT22;7812;50.072;7.036;2022-11-15T07:50:16;8.70;99.90
15426;DHT22;7812;50.072;7.036;2022-11-15T07:52:42;8.70;99.90
15426;DHT22;7812;50.072;7.036;2022-11-15T07:55:08;8.80;99.90
15426;DHT22;7812;50.072;7.036;2022-11-15T07:57:35;9.00;99.90
15426;DHT22;7812;50.072;7.036;2022-11-15T08:00:01;9.10;99.90
15426;DHT22;7812;50.072;7.036;2022-11-15T08:02:26;9.30;99.90
15426;DHT22;7812;50.072;7.036;2022-11-15T08:04:53;9.40;99.90
15426;DHT22;7812;50.072;7.036;2022-11-15T08:07:19;9.50;99.90
15426;DHT22;7812;50.072;7.036;2022-11-15T08:09:45;9.50;99.90
15426;DHT22;7812;50.072;7.036;2022-11-15T08:12:10;9.60;99.90
15426;DHT22;7812;50.072;7.036;2022-11-15T08:14:36;9.70;99.90
15426;DHT22;7812;50.072;7.036;2022-11-15T08:17:02;9.80;99.90
15426;DHT22;7812;50.072;7.036;2022-11-15T08:19:27;9.90;99.90
15426;DHT22;7812;50.072;7.036;2022-11-15T08:21:53;9.90;99.90
15426;DHT22;7812;50.072;7.036;2022-11-15T08:24:19;9.90;99.90
15426;DHT22;7812;50.072;7.036;2022-11-15T08:26:45;10.00;99.90
15426;DHT22;7812;50.072;7.036;2022-11-15T08:29:11;10.00;99.90
15426;DHT22;7812;50.072;7.036;2022-11-15T08:31:38;10.10;99.90
15426;DHT22;7812;50.072;7.036;2022-11-15T08:34:05;10.20;99.90
15426;DHT22;7812;50.072;7.036;2022-11-15T08:36:31;10.30;99.90
15426;DHT22;7812;50.072;7.036;2022-11-15T08:38:57;10.10;99.90
15426;DHT22;7812;50.072;7.036;2022-11-15T08:41:35;10.20;99.90
15426;DHT22;7812;50.072;7.036;2022-11-15T08:44:02;10.30;99.90
15426;DHT22;7812;50.072;7.036;2022-11-15T08:46:27;10.40;99.90
15426;DHT22;7812;50.072;7.036;2022-11-15T08:48:53;10.40;99.90
15426;DHT22;7812;50.072;7.036;2022-11-15T08:51:19;10.40;99.90
15426;DHT22;7812;50.072;7.036;2022-11-15T08:53:45;10.40;99.90
15426;DHT22;7812;50.072;7.036;2022-11-15T08:56:12;10.50;99.90
15426;DHT22;7812;50.072;7.036;2022-11-15T08:58:38;10.70;99.90
15426;DHT22;7812;50.072;7.036;2022-11-15T09:01:04;10.90;99.90
15426;DHT22;7812;50.072;7.036;2022-11-15T09:03:40;10.90;99.90
15426;DHT22;7812;50.072;7.036;2022-11-15T09:06:06;10.90;99.90
15426;DHT22;7812;50.072;7.036;2022-11-15T09:08:32;11.00;99.90
15426;DHT22;7812;50.072;7.036;2022-11-15T09:10:57;11.00;99.90
15426;DHT22;7812;50.072;7.036;2022-11-15T09:13:23;11.10;99.90
15426;DHT22;7812;50.072;7.036;2022-11-15T09:15:49;11.30;99.90
15426;DHT22;7812;50.072;7.036;2022-11-15T09:18:15;11.50;99.90
15426;DHT22;7812;50.072;7.036;2022-11-15T09:20:40;11.60;99.90
15426;DHT22;7812;50.072;7.036;2022-11-15T09:23:06;11.50;99.90
15426;DHT22;7812;50.072;7.036;2022-11-15T09:25:33;11.70;99.90
15426;DHT22;7812;50.072;7.036;2022-11-15T09:27:59;11.90;99.90
15426;DHT22;7812;50.072;7.036;2022-11-15T09:30:25;12.10;99.90
15426;DHT22;7812;50.072;7.036;2022-11-15T09:32:51;12.20;99.90
15426;DHT22;7812;50.072;7.036;2022-11-15T09:35:17;12.30;99.90
15426;DHT22;7812;50.072;7.036;2022-11-15T09:37:43;12.40;99.90
15426;DHT22;7812;50.072;7.036;2022-11-15T09:40:11;12.80;99.90
15426;DHT22;7812;50.072;7.036;2022-11-15T09:49:04;13.90;99.90
15426;DHT22;7812;50.072;7.036;2022-11-15T09:51:43;13.60;99.90
15426;DHT22;7812;50.072;7.036;2022-11-15T10:05:10;15.60;99.90
15426;DHT22;7812;50.072;7.036;2022-11-15T10:08:05;15.10;99.90
15426;DHT22;7812;50.072;7.036;2022-11-15T10:10:37;14.60;99.90
15426;DHT22;7812;50.072;7.036;2022-11-15T10:13:06;14.20;99.90
15426;DHT22;7812;50.072;7.036;2022-11-15T10:15:33;14.00;99.90
15426;DHT22;7812;50.072;7.036;2022-11-15T10:18:58;13.70;99.90
15426;DHT22;7812;50.072;7.036;2022-11-15T10:21:18;14.00;99.90
15426;DHT22;7812;50.072;7.036;2022-11-15T10:23:45;14.30;99.90
15426;DHT22;7812;50.072;7.036;2022-11-15T10:26:15;14.30;99.90
15426;DHT22;7812;50.072;7.036;2022-11-15T10:28:41;14.00;99.90
15426;DHT22;7812;50.072;7.036;2022-11-15T10:31:25;14.40;99.90
15426;DHT22;7812;50.072;7.036;2022-11-15T10:33:52;15.00;99.90
15426;DHT22;7812;50.072;7.036;2022-11-15T10:36:24;15.00;99.90
15426;DHT22;7812;50.072;7.036;2022-11-15T10:43:46;16.60;99.90
15426;DHT22;7812;50.072;7.036;2022-11-15T10:46:26;18.00;99.90
15426;DHT22;7812;50.072;7.036;2022-11-15T10:48:52;19.30;99.90
15426;DHT22;7812;50.072;7.036;2022-11-15T10:51:27;20.30;99.90
15426;DHT22;7812;50.072;7.036;2022-11-15T10:53:59;19.50;99.90
15426;DHT22;7812;50.072;7.036;2022-11-15T10:56:26;20.00;99.90
15426;DHT22;7812;50.072;7.036;2022-11-15T10:58:55;19.90;99.90
15426;DHT22;7812;50.072;7.036;2022-11-15T11:01:26;19.20;99.90
15426;DHT22;7812;50.072;7.036;2022-11-15T11:06:26;17.60;99.90
15426;DHT22;7812;50.072;7.036;2022-11-15T11:09:03;17.40;99.90
15426;DHT22;7812;50.072;7.036;2022-11-15T11:11:51;18.10;99.90
15426;DHT22;7812;50.072;7.036;2022-11-15T11:14:29;17.80;99.90
15426;DHT22;7812;50.072;7.036;2022-11-15T11:17:03;18.30;99.90
15426;DHT22;7812;50.072;7.036;2022-11-15T11:27:55;18.00;99.90
15426;DHT22;7812;50.072;7.036;2022-11-15T11:30:40;18.40;99.90
15426;DHT22;7812;50.072;7.036;2022-11-15T11:33:31;18.40;99.90
15426;DHT22;7812;50.072;7.036;2022-11-15T11:47:31;17.50;99.90
15426;DHT22;7812;50.072;7.036;2022-11-15T11:50:25;16.90;99.90
15426;DHT22;7812;50.072;7.036;2022-11-15T11:53:21;16.90;99.90
15426;DHT22;7812;50.072;7.036;2022-11-15T11:58:55;17.00;99.90
15426;DHT22;7812;50.072;7.036;2022-11-15T12:03:55;16.80;99.90
15426;DHT22;7812;50.072;7.036;2022-11-15T12:12:18;16.50;99.90
15426;DHT22;7812;50.072;7.036;2022-11-15T12:15:33;16.60;99.90
15426;DHT22;7812;50.072;7.036;2022-11-15T12:18:01;17.10;99.90
15426;DHT22;7812;50.072;7.036;2022-11-15T12:20:37;17.60;99.90
15426;DHT22;7812;50.072;7.036;2022-11-15T12:25:51;17.40;99.90
15426;DHT22;7812;50.072;7.036;2022-11-15T12:28:40;17.60;99.90
15426;DHT22;7812;50.072;7.036;2022-11-15T12:31:48;17.90;99.90
15426;DHT22;7812;50.072;7.036;2022-11-15T12:36:48;17.30;99.90
15426;DHT22;7812;50.072;7.036;2022-11-15T12:39:15;16.90;99.90
15426;DHT22;7812;50.072;7.036;2022-11-15T12:42:35;17.00;99.90
15426;DHT22;7812;50.072;7.036;2022-11-15T13:00:00;16.40;99.90
15426;DHT22;7812;50.072;7.036;2022-11-15T13:02:42;16.30;99.90
15426;DHT22;7812;50.072;7.036;2022-11-15T13:17:49;16.10;99.90
15426;DHT22;7812;50.072;7.036;2022-11-15T13:25:36;16.30;99.90
15426;DHT22;7812;50.072;7.036;2022-11-15T13:33:17;15.90;99.90
15426;DHT22;7812;50.072;7.036;2022-11-15T13:35:47;16.10;99.90
15426;DHT22;7812;50.072;7.036;2022-11-15T13:38:29;16.00;99.90
15426;DHT22;7812;50.072;7.036;2022-11-15T13:40:56;16.10;99.90
15426;DHT22;7812;50.072;7.036;2022-11-15T13:46:32;16.40;99.90
15426;DHT22;7812;50.072;7.036;2022-11-15T13:49:19;16.20;99.90
15426;DHT22;7812;50.072;7.036;2022-11-15T13:51:54;15.80;99.90
15426;DHT22;7812;50.072;7.036;2022-11-15T13:54:25;15.90;99.90
15426;DHT22;7812;50.072;7.036;2022-11-15T13:56:53;16.20;99.90
15426;DHT22;7812;50.072;7.036;2022-11-15T13:59:29;16.60;99.90
15426;DHT22;7812;50.072;7.036;2022-11-15T14:01:59;16.20;99.90
15426;DHT22;7812;50.072;7.036;2022-11-15T14:04:35;15.80;99.90
15426;DHT22;7812;50.072;7.036;2022-11-15T14:07:19;15.60;99.90
15426;DHT22;7812;50.072;7.036;2022-11-15T14:09:46;15.50;99.90
15426;DHT22;7812;50.072;7.036;2022-11-15T14:12:50;15.60;99.90
15426;DHT22;7812;50.072;7.036;2022-11-15T14:17:53;15.60;99.90
15426;DHT22;7812;50.072;7.036;2022-11-15T14:23:05;15.30;99.90
15426;DHT22;7812;50.072;7.036;2022-11-15T14:25:33;15.30;99.90
15426;DHT22;7812;50.072;7.036;2022-11-15T14:30:47;14.90;99.90
15426;DHT22;7812;50.072;7.036;2022-11-15T14:35:46;14.70;99.90
15426;DHT22;7812;50.072;7.036;2022-11-15T14:38:12;14.80;99.90
15426;DHT22;7812;50.072;7.036;2022-11-15T14:40:38;14.60;99.90
15426;DHT22;7812;50.072;7.036;2022-11-15T14:43:11;14.60;99.90
15426;DHT22;7812;50.072;7.036;2022-11-15T14:45:39;14.50;99.90
15426;DHT22;7812;50.072;7.036;2022-11-15T14:48:04;14.40;99.90
15426;DHT22;7812;50.072;7.036;2022-11-15T14:50:32;14.30;99.90
15426;DHT22;7812;50.072;7.036;2022-11-15T14:52:58;14.20;99.90
15426;DHT22;7812;50.072;7.036;2022-11-15T14:55:33;14.00;99.90
15426;DHT22;7812;50.072;7.036;2022-11-15T14:58:05;13.90;99.90
15426;DHT22;7812;50.072;7.036;2022-11-15T15:00:34;13.90;99.90
15426;DHT22;7812;50.072;7.036;2022-11-15T15:03:01;13.80;99.90
15426;DHT22;7812;50.072;7.036;2022-11-15T15:05:41;13.70;99.90
15426;DHT22;7812;50.072;7.036;2022-11-15T15:08:08;13.50;99.90
15426;DHT22;7812;50.072;7.036;2022-11-15T15:10:44;13.50;99.90
15426;DHT22;7812;50.072;7.036;2022-11-15T15:13:22;13.40;99.90
15426;DHT22;7812;50.072;7.036;2022-11-15T15:15:50;13.30;99.90
15426;DHT22;7812;50.072;7.036;2022-11-15T15:18:17;13.20;99.90
15426;DHT22;7812;50.072;7.036;2022-11-15T15:20:44;13.10;99.90
15426;DHT22;7812;50.072;7.036;2022-11-15T15:25:41;13.00;99.90
15426;DHT22;7812;50.072;7.036;2022-11-15T15:28:07;13.00;99.90
15426;DHT22;7812;50.072;7.036;2022-11-15T15:30:33;12.90;99.90
15426;DHT22;7812;50.072;7.036;2022-11-15T15:32:58;12.90;99.90
15426;DHT22;7812;50.072;7.036;2022-11-15T15:35:30;13.00;99.90
15426;DHT22;7812;50.072;7.036;2022-11-15T15:38:11;12.90;99.90
15426;DHT22;7812;50.072;7.036;2022-11-15T15:40:37;12.80;99.90
15426;DHT22;7812;50.072;7.036;2022-11-15T15:43:03;12.90;99.90
15426;DHT22;7812;50.072;7.036;2022-11-15T15:45:29;12.90;99.90
15426;DHT22;7812;50.072;7.036;2022-11-15T15:47:55;12.80;99.90
15426;DHT22;7812;50.072;7.036;2022-11-15T15:50:31;12.70;99.90
15426;DHT22;7812;50.072;7.036;2022-11-15T15:52:59;12.70;99.90
15426;DHT22;7812;50.072;7.036;2022-11-15T15:55:44;12.80;99.90
15426;DHT22;7812;50.072;7.036;2022-11-15T15:58:09;12.70;99.90
15426;DHT22;7812;50.072;7.036;2022-11-15T16:00:35;12.70;99.90
15426;DHT22;7812;50.072;7.036;2022-11-15T16:03:02;12.70;99.90
15426;DHT22;7812;50.072;7.036;2022-11-15T16:05:27;12.70;99.90
15426;DHT22;7812;50.072;7.036;2022-11-15T16:07:53;12.60;99.90
15426;DHT22;7812;50.072;7.036;2022-11-15T16:10:25;12.60;99.90
15426;DHT22;7812;50.072;7.036;2022-11-15T16:12:52;12.60;99.90
15426;DHT22;7812;50.072;7.036;2022-11-15T16:15:20;12.50;99.90
15426;DHT22;7812;50.072;7.036;2022-11-15T16:17:51;12.50;99.90
15426;DHT22;7812;50.072;7.036;2022-11-15T16:20:44;12.50;99.90
15426;DHT22;7812;50.072;7.036;2022-11-15T16:23:16;12.40;99.90
15426;DHT22;7812;50.072;7.036;2022-11-15T16:25:53;12.40;99.90
15426;DHT22;7812;50.072;7.036;2022-11-15T16:28:22;12.40;99.90
15426;DHT22;7812;50.072;7.036;2022-11-15T16:30:48;12.40;99.90
15426;DHT22;7812;50.072;7.036;2022-11-15T16:33:14;12.50;99.90
15426;DHT22;7812;50.072;7.036;2022-11-15T16:35:42;12.50;99.90
15426;DHT22;7812;50.072;7.036;2022-11-15T16:38:14;12.50;99.90
15426;DHT22;7812;50.072;7.036;2022-11-15T16:40:40;12.50;99.90
15426;DHT22;7812;50.072;7.036;2022-11-15T16:43:05;12.40;99.90
15426;DHT22;7812;50.072;7.036;2022-11-15T16:45:33;12.40;99.90
15426;DHT22;7812;50.072;7.036;2022-11-15T16:48:05;12.30;99.90
15426;DHT22;7812;50.072;7.036;2022-11-15T16:50:33;12.30;99.90
15426;DHT22;7812;50.072;7.036;2022-11-15T16:53:05;12.10;99.90
15426;DHT22;7812;50.072;7.036;2022-11-15T16:55:31;12.00;99.90
15426;DHT22;7812;50.072;7.036;2022-11-15T16:57:56;11.90;99.90
15426;DHT22;7812;50.072;7.036;2022-11-15T17:00:23;11.90;99.90
15426;DHT22;7812;50.072;7.036;2022-11-15T17:02:50;11.90;99.90
15426;DHT22;7812;50.072;7.036;2022-11-15T17:05:19;11.80;99.90
15426;DHT22;7812;50.072;7.036;2022-11-15T17:07:50;11.80;99.90
15426;DHT22;7812;50.072;7.036;2022-11-15T17:10:19;11.80;99.90
15426;DHT22;7812;50.072;7.036;2022-11-15T17:12:45;11.80;99.90
15426;DHT22;7812;50.072;7.036;2022-11-15T17:15:11;11.80;99.90
15426;DHT22;7812;50.072;7.036;2022-11-15T17:17:37;11.70;99.90
15426;DHT22;7812;50.072;7.036;2022-11-15T17:20:04;11.70;99.90
15426;DHT22;7812;50.072;7.036;2022-11-15T17:22:35;11.80;99.90
15426;DHT22;7812;50.072;7.036;2022-11-15T17:25:01;11.70;99.90
15426;DHT22;7812;50.072;7.036;2022-11-15T17:27:46;11.60;99.90
15426;DHT22;7812;50.072;7.036;2022-11-15T17:30:13;11.60;99.90
15426;DHT22;7812;50.072;7.036;2022-11-15T17:32:43;11.60;99.90
15426;DHT22;7812;50.072;7.036;2022-11-15T17:35:10;11.60;99.90
15426;DHT22;7812;50.072;7.036;2022-11-15T17:37:36;11.50;99.90
15426;DHT22;7812;50.072;7.036;2022-11-15T17:40:04;11.50;99.90
15426;DHT22;7812;50.072;7.036;2022-11-15T17:42:29;11.40;99.90
15426;DHT22;7812;50.072;7.036;2022-11-15T17:44:56;11.40;99.90
15426;DHT22;7812;50.072;7.036;2022-11-15T17:47:22;11.50;99.90
15426;DHT22;7812;50.072;7.036;2022-11-15T17:49:47;11.50;99.90
15426;DHT22;7812;50.072;7.036;2022-11-15T17:52:13;11.60;99.90
15426;DHT22;7812;50.072;7.036;2022-11-15T17:54:38;11.50;99.90
15426;DHT22;7812;50.072;7.036;2022-11-15T17:57:04;11.50;99.90
15426;DHT22;7812;50.072;7.036;2022-11-15T17:59:30;11.50;99.90
15426;DHT22;7812;50.072;7.036;2022-11-15T18:01:56;11.50;99.90
15426;DHT22;7812;50.072;7.036;2022-11-15T18:04:21;11.50;99.90
15426;DHT22;7812;50.072;7.036;2022-11-15T18:06:53;11.40;99.90
15426;DHT22;7812;50.072;7.036;2022-11-15T18:09:19;11.30;99.90
15426;DHT22;7812;50.072;7.036;2022-11-15T18:11:46;11.20;99.90
15426;DHT22;7812;50.072;7.036;2022-11-15T18:14:16;11.20;99.90
15426;DHT22;7812;50.072;7.036;2022-11-15T18:16:42;11.20;99.90
15426;DHT22;7812;50.072;7.036;2022-11-15T18:19:08;11.00;99.90
15426;DHT22;7812;50.072;7.036;2022-11-15T18:21:42;11.00;99.90
15426;DHT22;7812;50.072;7.036;2022-11-15T18:24:38;11.10;99.90
15426;DHT22;7812;50.072;7.036;2022-11-15T18:27:05;11.00;99.90
15426;DHT22;7812;50.072;7.036;2022-11-15T18:29:31;10.90;99.90
15426;DHT22;7812;50.072;7.036;2022-11-15T18:31:59;10.90;99.90
15426;DHT22;7812;50.072;7.036;2022-11-15T18:34:28;10.90;99.90
15426;DHT22;7812;50.072;7.036;2022-11-15T18:36:58;10.90;99.90
15426;DHT22;7812;50.072;7.036;2022-11-15T18:39:24;10.90;99.90
15426;DHT22;7812;50.072;7.036;2022-11-15T18:41:50;10.90;99.90